Time;durP1;ratioP1;P1;durP2;ratioP2;P2;SDS_P1;SDS_P2;PMS_P1;PMS_P2;Temp;Humidity;BMP_temperature;BMP_pressure;BME280_temperature;BME280_humidity;BME280_pressure;Samples;Min_cycle;Max_cycle;Signal;HPM_P1;HPM_P2
2022/03/29 00:01:28;;;;;;;3.43;3.33;;;20.40;56.80;;;;;;5085070;27;43951;-73
2022/03/29 00:03:56;;;;;;;3.37;3.27;;;20.40;57.00;;;;;;5089533;27;43861;-73
2022/03/29 00:06:25;;;;;;;3.47;3.37;;;20.30;57.40;;;;;;5089620;27;43432;-73
2022/03/29 00:08:53;;;;;;;3.20;3.10;;;20.30;57.50;;;;;;5087926;28;43964;-74
2022/03/29 00:11:20;;;;;;;3.33;3.23;;;20.40;57.40;;;;;;5089730;28;43947;-72
2022/03/29 00:13:48;;;;;;;3.67;3.57;;;20.40;57.10;;;;;;5087929;28;46154;-73
2022/03/29 00:16:17;;;;;;;4.30;4.10;;;20.40;57.00;;;;;;5087785;28;46075;-73
2022/03/29 00:18:53;;;;;;;3.77;3.67;;;20.40;57.00;;;;;;5089526;27;43935;-73
2022/03/29 00:21:20;;;;;;;3.37;3.27;;;20.30;57.40;;;;;;5089903;28;43332;-74
2022/03/29 00:23:48;;;;;;;3.40;3.30;;;20.20;57.60;;;;;;5088889;28;43982;-73
2022/03/29 00:26:16;;;;;;;3.60;3.50;;;20.30;57.50;;;;;;5088871;28;44122;-72
2022/03/29 00:28:44;;;;;;;3.37;3.27;;;20.30;57.40;;;;;;5089140;28;43973;-73
2022/03/29 00:31:12;;;;;;;3.50;3.40;;;20.30;57.40;;;;;;5087839;28;43861;-73
2022/03/29 00:33:40;;;;;;;3.70;3.60;;;20.30;57.10;;;;;;5089277;27;44012;-73
2022/03/29 00:36:10;;;;;;;3.70;3.50;;;20.20;57.30;;;;;;5088942;28;44057;-73
2022/03/29 00:38:38;;;;;;;3.40;3.30;;;20.20;57.90;;;;;;5089265;28;43894;-73
2022/03/29 00:41:05;;;;;;;3.43;3.33;;;20.20;57.80;;;;;;5089295;28;43388;-73
2022/03/29 00:43:34;;;;;;;3.33;3.23;;;20.30;57.50;;;;;;5088569;28;43955;-73
2022/03/29 00:46:02;;;;;;;3.50;3.40;;;20.30;57.40;;;;;;5088768;28;43987;-73
2022/03/29 00:48:30;;;;;;;3.40;3.30;;;20.30;57.40;;;;;;5087087;28;43876;-72
2022/03/29 00:50:57;;;;;;;3.63;3.53;;;20.20;57.20;;;;;;5087982;28;43934;-73
2022/03/29 00:53:27;;;;;;;3.47;3.37;;;20.10;58.00;;;;;;5087571;28;43958;-72
2022/03/29 00:55:55;;;;;;;3.17;3.07;;;20.20;57.90;;;;;;5087193;28;44069;-73
2022/03/29 00:58:23;;;;;;;3.43;3.33;;;20.20;57.60;;;;;;5088099;27;43344;-74
2022/03/29 01:00:51;;;;;;;3.47;3.37;;;20.30;57.40;;;;;;5088241;28;43950;-73
2022/03/29 01:03:19;;;;;;;3.23;3.13;;;20.30;57.30;;;;;;5088483;27;43981;-73
2022/03/29 01:05:47;;;;;;;3.43;3.33;;;20.30;57.30;;;;;;5088420;27;44040;-73
2022/03/29 01:08:15;;;;;;;3.37;3.30;;;20.20;57.40;;;;;;5088682;28;43951;-73
2022/03/29 01:10:45;;;;;;;3.47;3.37;;;20.20;57.80;;;;;;5087150;28;43616;-74
2022/03/29 01:13:13;;;;;;;3.10;3.10;;;20.20;57.80;;;;;;5086752;27;46382;-73
2022/03/29 01:15:41;;;;;;;3.43;3.33;;;20.30;57.40;;;;;;5088629;28;43974;-72
2022/03/29 01:18:08;;;;;;;3.73;3.53;;;20.40;57.30;;;;;;5084020;28;43381;-73
2022/03/29 01:20:36;;;;;;;3.70;3.50;;;20.30;57.30;;;;;;5088773;28;43977;-74
2022/03/29 01:23:06;;;;;;;3.73;3.63;;;20.20;57.10;;;;;;5086320;28;46975;-73
2022/03/29 01:25:35;;;;;;;3.50;3.40;;;20.20;57.80;;;;;;5085948;28;45803;-74
2022/03/29 01:28:04;;;;;;;3.17;3.17;;;20.20;57.80;;;;;;5075462;28;43393;-72
2022/03/29 01:30:32;;;;;;;3.67;3.57;;;20.30;57.70;;;;;;5060541;28;43901;-72
2022/03/29 01:33:01;;;;;;;3.50;3.40;;;20.40;57.40;;;;;;5075048;28;44948;-73
2022/03/29 01:35:29;;;;;;;3.50;3.40;;;20.40;57.30;;;;;;5075569;28;44040;-73
2022/03/29 01:37:57;;;;;;;3.80;3.70;;;20.30;57.40;;;;;;5086653;28;43977;-74
2022/03/29 01:40:27;;;;;;;3.53;3.43;;;20.20;57.40;;;;;;5086864;28;44007;-73
2022/03/29 01:42:56;;;;;;;3.50;3.40;;;20.20;57.80;;;;;;5087436;27;43623;-73
2022/03/29 01:45:26;;;;;;;3.60;3.50;;;20.20;57.60;;;;;;5087991;28;43985;-72
2022/03/29 01:47:54;;;;;;;3.60;3.50;;;20.30;57.40;;;;;;5087879;27;43950;-73
2022/03/29 01:50:22;;;;;;;3.90;3.80;;;20.40;57.30;;;;;;5088366;28;43487;-73
2022/03/29 01:52:50;;;;;;;3.67;3.57;;;20.30;57.30;;;;;;5087560;27;44124;-73
2022/03/29 01:55:20;;;;;;;3.50;3.40;;;20.20;57.20;;;;;;5087570;27;43979;-73
2022/03/29 01:57:50;;;;;;;3.60;3.40;;;20.20;57.80;;;;;;5087848;28;44220;-74
2022/03/29 02:00:34;;;;;;;3.63;3.53;;;20.20;57.90;;;;;;5086771;28;44152;-73
2022/03/29 02:03:05;;;;;;;3.43;3.33;;;20.20;57.60;;;;;;5087377;27;44048;-73
2022/03/29 02:05:33;;;;;;;3.53;3.43;;;20.30;57.40;;;;;;5087605;27;43409;-74
2022/03/29 02:08:01;;;;;;;3.50;3.40;;;20.30;57.40;;;;;;5087379;27;44024;-73
2022/03/29 02:10:29;;;;;;;3.37;3.27;;;20.30;57.40;;;;;;5087569;28;44041;-73
2022/03/29 02:12:58;;;;;;;3.60;3.50;;;20.20;57.80;;;;;;5086188;28;43945;-73
2022/03/29 02:15:26;;;;;;;3.73;3.63;;;20.20;57.90;;;;;;5086801;28;43920;-74
2022/03/29 02:17:54;;;;;;;3.60;3.40;;;20.20;57.70;;;;;;5087623;28;43435;-74
2022/03/29 02:20:23;;;;;;;3.60;3.50;;;20.30;57.40;;;;;;5087705;28;43367;-73
2022/03/29 02:22:51;;;;;;;3.67;3.57;;;20.30;57.40;;;;;;5087221;27;44027;-73
2022/03/29 02:25:19;;;;;;;3.53;3.43;;;20.30;57.40;;;;;;5086832;28;43891;-72
2022/03/29 02:27:47;;;;;;;3.93;3.73;;;20.20;57.30;;;;;;5086608;28;44089;-73
2022/03/29 02:30:17;;;;;;;3.77;3.67;;;20.10;58.10;;;;;;5086954;28;43972;-73
2022/03/29 02:32:45;;;;;;;3.50;3.40;;;20.20;58.10;;;;;;5086486;27;44071;-73
2022/03/29 02:35:13;;;;;;;3.93;3.83;;;20.20;57.90;;;;;;5086654;27;44063;-73
2022/03/29 02:37:41;;;;;;;3.57;3.47;;;20.30;57.60;;;;;;5087484;28;43778;-73
2022/03/29 02:40:10;;;;;;;3.80;3.70;;;20.30;57.40;;;;;;5087288;28;43930;-73
2022/03/29 02:42:41;;;;;;;3.60;3.50;;;20.20;57.40;;;;;;5086683;28;43761;-74
2022/03/29 02:45:12;;;;;;;3.70;3.60;;;20.20;58.00;;;;;;5087169;28;43465;-73
2022/03/29 02:47:41;;;;;;;4.13;4.03;;;20.20;58.20;;;;;;5086979;28;43899;-73
2022/03/29 02:50:10;;;;;;;3.97;3.80;;;20.20;58.00;;;;;;5087259;28;44158;-73
2022/03/29 02:52:43;;;;;;;3.80;3.70;;;20.30;57.70;;;;;;5087597;28;43943;-73
2022/03/29 02:55:12;;;;;;;3.77;3.67;;;20.30;57.40;;;;;;5086812;28;43892;-72
2022/03/29 02:57:39;;;;;;;4.10;4.00;;;20.30;57.40;;;;;;5087275;28;43933;-74
2022/03/29 03:00:09;;;;;;;3.37;3.27;;;20.20;57.80;;;;;;5087405;28;43930;-74
2022/03/29 03:02:37;;;;;;;3.97;3.77;;;20.20;58.80;;;;;;5086674;28;45140;-73
2022/03/29 03:05:08;;;;;;;3.50;3.40;;;20.20;58.10;;;;;;5086820;27;44025;-73
2022/03/29 03:07:36;;;;;;;3.30;3.20;;;20.20;57.80;;;;;;5086871;28;43984;-73
2022/03/29 03:10:05;;;;;;;3.60;3.50;;;20.30;57.60;;;;;;5087044;28;43883;-72
2022/03/29 03:12:35;;;;;;;4.00;3.90;;;20.30;57.40;;;;;;5086232;28;43999;-73
2022/03/29 03:15:04;;;;;;;3.67;3.57;;;20.20;57.60;;;;;;5086756;28;43872;-74
2022/03/29 03:17:32;;;;;;;3.60;3.50;;;20.10;58.10;;;;;;5086747;28;43941;-73
2022/03/29 03:20:00;;;;;;;3.70;3.60;;;20.10;58.10;;;;;;5086629;27;44041;-74
2022/03/29 03:22:29;;;;;;;3.87;3.73;;;20.20;58.00;;;;;;5086540;28;43935;-72
2022/03/29 03:24:57;;;;;;;3.57;3.47;;;20.20;57.80;;;;;;5085993;27;44037;-73
2022/03/29 03:27:25;;;;;;;3.77;3.67;;;20.30;57.60;;;;;;5086265;28;43987;-72
2022/03/29 03:29:53;;;;;;;3.80;3.70;;;20.30;57.60;;;;;;5087169;28;43949;-72
2022/03/29 03:32:21;;;;;;;3.70;3.60;;;20.20;57.60;;;;;;5085937;28;43856;-72
2022/03/29 03:34:49;;;;;;;4.00;3.90;;;20.10;58.20;;;;;;5084320;28;45149;-72
2022/03/29 03:37:17;;;;;;;3.70;3.60;;;20.10;58.40;;;;;;5088094;27;43882;-72
2022/03/29 03:39:46;;;;;;;3.50;3.40;;;20.20;58.20;;;;;;5090482;27;43893;-72
2022/03/29 03:42:14;;;;;;;3.20;3.03;;;20.30;58.00;;;;;;5089972;27;43939;-73
2022/03/29 03:44:42;;;;;;;3.87;3.73;;;20.30;57.60;;;;;;5089700;28;43899;-72
2022/03/29 03:47:10;;;;;;;3.53;3.43;;;20.30;57.50;;;;;;5089946;28;44047;-73
2022/03/29 03:49:38;;;;;;;3.80;3.70;;;20.30;57.40;;;;;;5089951;27;43956;-73
2022/03/29 03:52:07;;;;;;;3.70;3.50;;;20.20;57.90;;;;;;5089411;27;44084;-73
2022/03/29 03:54:38;;;;;;;3.67;3.57;;;20.10;58.10;;;;;;5089005;28;44274;-72
2022/03/29 03:57:08;;;;;;;3.77;3.67;;;20.20;58.00;;;;;;5087786;28;44006;-73
2022/03/29 03:59:35;;;;;;;4.37;4.07;;;20.20;57.90;;;;;;5090241;28;43417;-73
2022/03/29 04:02:04;;;;;;;4.17;3.97;;;20.30;57.60;;;;;;5089794;28;43947;-73
2022/03/29 04:04:32;;;;;;;5.30;4.00;;;20.40;57.40;;;;;;5089173;27;44080;-74
2022/03/29 04:07:00;;;;;;;5.00;4.70;;;20.50;57.40;;;;;;5089532;28;43931;-73
2022/03/29 04:09:28;;;;;;;4.73;3.97;;;20.60;57.00;;;;;;5088323;28;43899;-74
2022/03/29 04:11:56;;;;;;;4.80;4.40;;;20.60;56.90;;;;;;5087801;28;46087;-74
2022/03/29 04:14:25;;;;;;;4.47;4.10;;;20.70;56.70;;;;;;5089302;28;44017;-72
2022/03/29 04:16:53;;;;;;;6.33;4.57;;;20.70;56.60;;;;;;5089600;28;43442;-72
2022/03/29 04:19:21;;;;;;;5.23;4.17;;;20.80;56.60;;;;;;5089854;27;44003;-74
2022/03/29 04:21:51;;;;;;;5.27;4.70;;;20.80;56.40;;;;;;5089074;28;43950;-73
2022/03/29 04:24:19;;;;;;;5.27;4.87;;;20.80;56.30;;;;;;5087357;28;44842;-72
2022/03/29 04:26:48;;;;;;;5.33;4.83;;;20.90;56.30;;;;;;5087983;28;43929;-73
2022/03/29 04:29:16;;;;;;;5.50;5.00;;;20.90;56.20;;;;;;5089572;27;43980;-72
2022/03/29 04:31:45;;;;;;;5.23;4.60;;;20.90;56.20;;;;;;5088426;28;44043;-72
2022/03/29 04:34:13;;;;;;;5.70;5.13;;;20.90;56.10;;;;;;5089249;28;43979;-73
2022/03/29 04:36:41;;;;;;;5.70;4.77;;;20.90;56.00;;;;;;5089195;28;43990;-73
2022/03/29 04:39:12;;;;;;;5.23;4.80;;;21.00;56.10;;;;;;5089712;28;44052;-72
2022/03/29 04:41:40;;;;;;;5.80;5.20;;;21.00;56.00;;;;;;5089235;28;43910;-73
2022/03/29 04:44:28;;;;;;;5.50;4.93;;;21.00;56.00;;;;;;5088877;27;44058;-74
2022/03/29 04:46:57;;;;;;;5.70;5.10;;;21.00;56.00;;;;;;5089029;27;44077;-73
2022/03/29 04:49:25;;;;;;;5.70;4.90;;;21.00;56.00;;;;;;5089105;27;43385;-73
2022/03/29 04:51:53;;;;;;;5.70;5.13;;;21.00;55.90;;;;;;5088598;28;44043;-73
2022/03/29 04:54:21;;;;;;;6.13;5.53;;;21.00;56.00;;;;;;5088277;28;43950;-72
2022/03/29 04:56:52;;;;;;;7.43;5.00;;;21.00;55.90;;;;;;5088805;28;43499;-73
2022/03/29 04:59:19;;;;;;;5.90;5.00;;;21.00;55.90;;;;;;5089058;27;43950;-73
2022/03/29 05:01:47;;;;;;;6.27;5.17;;;21.00;55.80;;;;;;5088581;28;43965;-73
2022/03/29 05:04:17;;;;;;;5.97;5.47;;;21.00;55.80;;;;;;5088237;27;44332;-72
2022/03/29 05:06:45;;;;;;;6.37;5.30;;;21.00;55.80;;;;;;5088769;28;43884;-71
2022/03/29 05:09:13;;;;;;;5.70;5.20;;;21.00;55.80;;;;;;5089292;28;44016;-74
2022/03/29 05:11:41;;;;;;;6.30;5.00;;;21.00;55.80;;;;;;5088849;27;43852;-74
2022/03/29 05:14:08;;;;;;;5.83;5.33;;;21.00;55.90;;;;;;5088286;27;44018;-73
2022/03/29 05:16:36;;;;;;;6.03;5.43;;;21.00;55.80;;;;;;5088497;28;43433;-72
2022/03/29 05:19:04;;;;;;;5.40;4.90;;;21.00;55.80;;;;;;5088947;27;43840;-73
2022/03/29 05:21:34;;;;;;;7.30;5.23;;;21.00;55.80;;;;;;5086666;28;45744;-73
2022/03/29 05:24:02;;;;;;;5.23;4.80;;;21.00;55.80;;;;;;5084513;28;44002;-73
2022/03/29 05:26:29;;;;;;;5.80;5.20;;;21.10;55.90;;;;;;5086793;28;43503;-73
2022/03/29 05:28:58;;;;;;;5.67;5.17;;;21.00;55.80;;;;;;5088797;28;43958;-73
2022/03/29 05:31:25;;;;;;;6.37;4.97;;;21.10;55.90;;;;;;5088032;28;43910;-73
2022/03/29 05:33:53;;;;;;;6.00;5.20;;;21.10;55.90;;;;;;5088325;27;43985;-73
2022/03/29 05:36:21;;;;;;;5.97;5.20;;;21.10;55.90;;;;;;5088485;27;43853;-73
2022/03/29 05:38:51;;;;;;;5.67;5.13;;;21.10;55.80;;;;;;5088646;28;44046;-73
2022/03/29 05:41:20;;;;;;;5.37;4.87;;;21.10;55.80;;;;;;5087935;28;45126;-74
2022/03/29 05:43:48;;;;;;;6.17;5.03;;;21.10;55.90;;;;;;5088028;28;43810;-73
2022/03/29 05:49:02;;;;;;;6.03;5.43;;;21.10;55.80;;;;;;5088391;28;43905;-73
2022/03/29 05:51:31;;;;;;;5.73;5.23;;;21.10;55.90;;;;;;5087829;28;43973;-74
2022/03/29 05:54:01;;;;;;;5.90;5.30;;;21.10;55.80;;;;;;5087318;28;43851;-73
2022/03/29 05:56:29;;;;;;;5.90;5.40;;;21.10;55.80;;;;;;5088232;27;44078;-74
2022/03/29 05:58:57;;;;;;;5.43;4.93;;;21.10;55.80;;;;;;5086489;27;43405;-74
2022/03/29 06:01:25;;;;;;;6.70;5.17;;;21.10;55.90;;;;;;5087684;28;43959;-73
2022/03/29 06:03:53;;;;;;;6.33;5.27;;;21.10;55.80;;;;;;5087561;27;43970;-73
2022/03/29 06:06:21;;;;;;;5.53;5.07;;;21.10;55.90;;;;;;5087736;27;44013;-73
2022/03/29 06:08:49;;;;;;;5.70;5.30;;;21.10;55.80;;;;;;5088016;27;43928;-72
2022/03/29 06:11:19;;;;;;;5.37;5.07;;;21.10;55.80;;;;;;5087638;28;43902;-73
2022/03/29 06:13:47;;;;;;;6.30;5.60;;;21.10;55.80;;;;;;5085893;28;43921;-73
2022/03/29 06:16:15;;;;;;;6.00;5.40;;;21.10;55.80;;;;;;5087666;28;43922;-73
2022/03/29 06:18:43;;;;;;;5.33;4.93;;;21.10;55.90;;;;;;5086664;28;43426;-74
2022/03/29 06:21:11;;;;;;;5.67;5.17;;;21.10;55.90;;;;;;5087447;28;43961;-73
2022/03/29 06:23:39;;;;;;;5.83;5.23;;;21.00;55.70;;;;;;5087497;28;44060;-74
2022/03/29 06:26:08;;;;;;;5.57;5.10;;;21.00;55.80;;;;;;5087347;28;43989;-72
2022/03/29 06:28:37;;;;;;;5.27;4.87;;;21.00;55.80;;;;;;5088003;28;43742;-73
2022/03/29 06:31:05;;;;;;;5.47;5.13;;;21.00;55.80;;;;;;5086958;28;43906;-72
2022/03/29 06:33:33;;;;;;;5.20;4.87;;;21.00;55.80;;;;;;5087205;27;43925;-72
2022/03/29 06:36:01;;;;;;;5.80;5.30;;;21.00;55.80;;;;;;5087368;28;43883;-74
2022/03/29 06:38:31;;;;;;;5.27;4.90;;;21.00;55.80;;;;;;5087539;28;43931;-73
2022/03/29 06:41:00;;;;;;;5.17;4.87;;;21.00;55.80;;;;;;5087111;28;44007;-73
2022/03/29 06:43:28;;;;;;;6.33;5.20;;;21.00;55.80;;;;;;5073941;28;43979;-73
2022/03/29 06:45:57;;;;;;;5.47;5.07;;;21.00;55.80;;;;;;5073804;28;43943;-73
2022/03/29 06:48:25;;;;;;;5.17;4.77;;;21.00;55.80;;;;;;5075078;28;43954;-73
2022/03/29 06:50:53;;;;;;;5.03;4.77;;;21.00;55.80;;;;;;5074153;28;44058;-73
2022/03/29 06:53:21;;;;;;;6.03;5.53;;;21.00;55.90;;;;;;5074088;28;44029;-73
2022/03/29 06:55:50;;;;;;;5.60;5.20;;;21.00;55.80;;;;;;5074279;28;43501;-74
2022/03/29 06:58:18;;;;;;;5.70;5.17;;;21.00;55.90;;;;;;5075032;28;43378;-74
2022/03/29 07:00:46;;;;;;;5.50;5.20;;;21.00;56.00;;;;;;5086849;28;44787;-73
2022/03/29 07:03:15;;;;;;;5.33;4.97;;;21.00;55.90;;;;;;5086753;27;44176;-74
2022/03/29 07:05:46;;;;;;;5.40;4.97;;;21.00;56.00;;;;;;5085526;28;43950;-73
2022/03/29 07:08:16;;;;;;;5.43;5.03;;;21.00;55.90;;;;;;5087253;27;44071;-73
2022/03/29 07:13:30;;;;;;;5.43;5.03;;;21.00;55.90;;;;;;5090544;28;43950;-74
2022/03/29 07:15:58;;;;;;;5.13;4.83;;;21.00;56.00;;;;;;5090277;28;44045;-72
2022/03/29 07:18:27;;;;;;;5.43;5.03;;;21.00;56.00;;;;;;5090781;27;43883;-73
2022/03/29 07:20:55;;;;;;;5.00;4.70;;;21.00;56.00;;;;;;5090209;28;43967;-72
2022/03/29 07:23:23;;;;;;;5.43;4.97;;;21.00;56.00;;;;;;5090326;28;43951;-73
2022/03/29 07:25:51;;;;;;;4.90;4.60;;;21.00;55.90;;;;;;5090204;27;43951;-73
2022/03/29 07:28:19;;;;;;;5.37;4.87;;;21.00;55.90;;;;;;5090422;28;43828;-73
2022/03/29 07:30:47;;;;;;;5.23;4.80;;;21.00;56.00;;;;;;5089836;28;44006;-73
2022/03/29 07:33:17;;;;;;;4.93;4.60;;;21.00;56.00;;;;;;5090078;27;43959;-74
2022/03/29 07:35:47;;;;;;;4.80;4.50;;;21.00;56.00;;;;;;5090342;28;43977;-73
2022/03/29 07:38:15;;;;;;;4.97;4.70;;;21.00;56.00;;;;;;5090566;28;44033;-73
2022/03/29 07:40:44;;;;;;;4.93;4.63;;;21.00;56.00;;;;;;5090156;28;44865;-73
2022/03/29 07:43:13;;;;;;;5.00;4.70;;;21.00;56.00;;;;;;5089878;28;44041;-73
2022/03/29 07:45:40;;;;;;;5.03;4.73;;;21.00;56.00;;;;;;5090266;28;43893;-73
2022/03/29 07:48:09;;;;;;;5.30;4.97;;;21.00;56.10;;;;;;5088693;28;44073;-72
2022/03/29 07:50:58;;;;;;;4.83;4.53;;;21.00;56.00;;;;;;5089835;27;44053;-73
2022/03/29 07:53:26;;;;;;;5.27;4.80;;;21.00;56.10;;;;;;5089481;28;43843;-73
2022/03/29 07:55:54;;;;;;;5.30;5.00;;;21.00;56.10;;;;;;5089749;28;43985;-73
2022/03/29 07:58:23;;;;;;;5.13;4.73;;;21.00;56.10;;;;;;5089995;28;43879;-73
2022/03/29 08:00:51;;;;;;;4.90;4.63;;;21.00;56.10;;;;;;5089534;28;45129;-73
2022/03/29 08:03:21;;;;;;;5.60;5.27;;;21.00;56.20;;;;;;5089599;28;43911;-73
2022/03/29 08:05:50;;;;;;;5.60;5.20;;;21.00;56.10;;;;;;5089355;27;43431;-74
2022/03/29 08:08:20;;;;;;;4.93;4.63;;;20.90;56.10;;;;;;5088554;28;43944;-74
2022/03/29 08:10:48;;;;;;;5.30;5.00;;;20.90;56.00;;;;;;5089513;27;44030;-73
2022/03/29 08:13:16;;;;;;;5.20;4.80;;;20.90;56.20;;;;;;5089601;28;43852;-72
2022/03/29 08:15:45;;;;;;;5.27;4.97;;;20.90;56.20;;;;;;5089486;28;43803;-72
2022/03/29 08:18:13;;;;;;;5.47;5.10;;;20.70;56.00;;;;;;5090308;27;43490;-74
2022/03/29 08:20:41;;;;;;;4.53;4.33;;;20.60;56.10;;;;;;5088166;28;45988;-73
2022/03/29 08:23:10;;;;;;;5.20;4.83;;;20.40;56.70;;;;;;5088814;27;43919;-74
2022/03/29 08:25:40;;;;;;;5.47;5.13;;;20.40;57.10;;;;;;5089382;28;44005;-74
2022/03/29 08:28:07;;;;;;;5.67;5.27;;;20.20;57.30;;;;;;5089545;27;43815;-73
2022/03/29 08:30:36;;;;;;;5.00;4.70;;;20.20;57.70;;;;;;5089135;28;43974;-73
2022/03/29 08:33:04;;;;;;;5.20;4.90;;;20.00;57.80;;;;;;5089043;27;43969;-73
2022/03/29 08:35:32;;;;;;;5.10;4.80;;;20.00;58.20;;;;;;5089167;28;43773;-73
2022/03/29 08:38:00;;;;;;;5.63;5.23;;;19.90;58.30;;;;;;5089804;28;43942;-73
2022/03/29 08:40:49;;;;;;;5.03;4.77;;;19.90;58.40;;;;;;5088793;28;43879;-73
2022/03/29 08:43:17;;;;;;;4.97;4.67;;;19.80;58.50;;;;;;5088911;28;43882;-74
2022/03/29 08:45:48;;;;;;;4.80;4.60;;;19.80;58.70;;;;;;5088901;27;43919;-73
2022/03/29 08:48:17;;;;;;;5.37;5.00;;;19.80;59.40;;;;;;5089413;27;43957;-74
2022/03/29 08:50:45;;;;;;;5.10;4.90;;;19.80;59.20;;;;;;5088824;28;43904;-73
2022/03/29 08:53:15;;;;;;;5.70;5.30;;;20.00;58.80;;;;;;5088988;27;44019;-73
2022/03/29 08:55:44;;;;;;;5.23;4.93;;;20.20;58.60;;;;;;5088879;28;43848;-73
2022/03/29 08:58:13;;;;;;;5.30;5.00;;;20.30;58.10;;;;;;5078221;27;44011;-73
2022/03/29 09:00:42;;;;;;;5.57;5.27;;;20.50;57.80;;;;;;5089132;28;43541;-74
2022/03/29 09:03:10;;;;;;;5.30;5.00;;;20.60;57.50;;;;;;5076386;28;43949;-74
2022/03/29 09:05:39;;;;;;;5.20;4.90;;;20.70;57.20;;;;;;5088883;27;44006;-74
2022/03/29 09:08:09;;;;;;;5.40;5.07;;;20.80;56.80;;;;;;5088845;27;43950;-73
2022/03/29 09:10:43;;;;;;;5.37;5.07;;;20.90;56.70;;;;;;5088476;28;44123;-73
2022/03/29 09:13:17;;;;;;;5.13;4.80;;;20.90;56.40;;;;;;5088809;28;44075;-73
2022/03/29 09:15:45;;;;;;;5.20;5.00;;;21.00;56.40;;;;;;5088590;28;43956;-72
2022/03/29 09:18:13;;;;;;;4.97;4.67;;;21.00;56.10;;;;;;5087628;28;44230;-73
2022/03/29 09:20:42;;;;;;;5.13;4.83;;;20.90;56.30;;;;;;5087181;28;45755;-73
2022/03/29 09:23:14;;;;;;;5.20;4.90;;;20.80;56.60;;;;;;5088849;27;43688;-72
2022/03/29 09:25:47;;;;;;;5.27;5.07;;;20.70;57.10;;;;;;5088407;28;44004;-73
2022/03/29 09:28:17;;;;;;;5.07;4.77;;;20.70;57.20;;;;;;5088920;27;43424;-74
2022/03/29 09:30:45;;;;;;;4.80;4.60;;;20.60;57.00;;;;;;5088164;28;43969;-74
2022/03/29 09:33:14;;;;;;;4.50;4.30;;;20.60;57.10;;;;;;5088413;28;43863;-72
2022/03/29 09:35:54;;;;;;;4.50;4.30;;;20.50;57.40;;;;;;5087365;28;43412;-73
2022/03/29 09:38:24;;;;;;;5.17;4.90;;;20.40;57.70;;;;;;5088399;27;44001;-73
2022/03/29 09:40:52;;;;;;;5.20;4.87;;;20.30;58.20;;;;;;5086536;28;46092;-74
2022/03/29 09:43:44;;;;;;;5.03;4.83;;;20.30;57.90;;;;;;5087794;28;43971;-73
2022/03/29 09:46:12;;;;;;;4.70;4.40;;;20.40;57.70;;;;;;5088353;28;43902;-72
2022/03/29 09:48:40;;;;;;;4.63;4.43;;;20.40;57.70;;;;;;5089015;27;43934;-74
2022/03/29 09:51:19;;;;;;;4.80;4.50;;;20.30;57.60;;;;;;5087896;28;43911;-73
2022/03/29 09:53:48;;;;;;;4.43;4.23;;;20.20;58.30;;;;;;5087750;28;43958;-73
2022/03/29 09:56:16;;;;;;;4.40;4.20;;;20.20;58.40;;;;;;5088238;28;43808;-72
2022/03/29 09:59:08;;;;;;;4.17;3.97;;;20.20;58.20;;;;;;5088295;27;44089;-73
2022/03/29 10:01:51;;;;;;;4.53;4.30;;;20.30;58.00;;;;;;5086491;28;46920;-74
2022/03/29 10:04:19;;;;;;;4.40;4.20;;;20.20;57.90;;;;;;5088316;27;43596;-73
2022/03/29 10:06:48;;;;;;;4.60;4.40;;;20.20;57.90;;;;;;5087299;28;44122;-73
2022/03/29 10:09:29;;;;;;;4.53;4.30;;;20.10;58.60;;;;;;5087874;28;44052;-73
2022/03/29 10:11:59;;;;;;;4.30;4.10;;;20.10;58.70;;;;;;5087603;27;44008;-72
2022/03/29 10:14:28;;;;;;;4.33;4.20;;;20.20;58.30;;;;;;5087530;27;44078;-72
2022/03/29 10:16:56;;;;;;;4.27;4.07;;;20.20;58.20;;;;;;5085886;28;44103;-72
2022/03/29 10:19:25;;;;;;;3.97;3.87;;;20.20;58.20;;;;;;5086610;28;43462;-74
2022/03/29 10:21:55;;;;;;;4.20;4.00;;;20.10;58.10;;;;;;5087302;28;43888;-73
2022/03/29 10:24:23;;;;;;;3.63;3.53;;;20.00;58.60;;;;;;5087447;27;44056;-74
2022/03/29 10:26:52;;;;;;;4.47;4.07;;;20.10;58.90;;;;;;5087279;28;44006;-74
2022/03/29 10:29:20;;;;;;;4.00;3.80;;;20.10;58.60;;;;;;5087699;28;43830;-72
2022/03/29 10:31:54;;;;;;;4.33;4.13;;;20.20;58.40;;;;;;5087108;28;45107;-73
2022/03/29 10:34:24;;;;;;;4.40;4.20;;;20.20;58.30;;;;;;5075046;28;43299;-73
2022/03/29 10:37:09;;;;;;;3.60;3.50;;;20.10;58.20;;;;;;5087482;27;43450;-73
2022/03/29 10:39:51;;;;;;;4.00;3.70;;;20.00;58.80;;;;;;5087642;28;43934;-72
2022/03/29 10:42:31;;;;;;;4.13;3.97;;;20.00;58.80;;;;;;5087170;28;43944;-72
2022/03/29 10:45:13;;;;;;;4.40;4.20;;;20.10;58.50;;;;;;5086904;28;43907;-73
2022/03/29 10:48:07;;;;;;;3.90;3.80;;;20.20;58.30;;;;;;5078588;28;44042;-72
2022/03/29 10:50:57;;;;;;;3.90;3.60;;;20.10;58.30;;;;;;5087380;28;43898;-73
2022/03/29 10:53:25;;;;;;;4.03;3.70;;;20.00;58.40;;;;;;5086229;28;45111;-73
2022/03/29 10:56:24;;;;;;;4.13;3.80;;;20.00;58.40;;;;;;5085985;27;45050;-73
2022/03/29 10:59:11;;;;;;;5.30;4.00;;;20.00;58.60;;;;;;5051406;27;44125;-73
2022/03/29 11:01:40;;;;;;;4.17;4.00;;;20.20;58.70;;;;;;5087550;27;44025;-73
2022/03/29 11:04:21;;;;;;;4.37;4.00;;;20.30;58.50;;;;;;5086309;28;44001;-73
2022/03/29 11:07:09;;;;;;;3.80;3.70;;;20.30;58.30;;;;;;5086587;27;43949;-74
2022/03/29 11:09:37;;;;;;;3.87;3.60;;;20.20;58.60;;;;;;5086658;27;43929;-72
2022/03/29 11:12:06;;;;;;;3.63;3.53;;;20.20;58.60;;;;;;5086442;28;44042;-73
2022/03/29 11:14:39;;;;;;;3.90;3.70;;;20.00;58.70;;;;;;5084818;28;47808;-73
2022/03/29 11:17:40;;;;;;;3.90;3.73;;;19.90;58.90;;;;;;5086526;27;43991;-73
2022/03/29 11:20:32;;;;;;;3.53;3.43;;;19.70;59.20;;;;;;5086748;28;43973;-73
2022/03/29 11:23:00;;;;;;;4.03;3.83;;;19.60;60.90;;;;;;5086737;27;44009;-73
2022/03/29 11:25:29;;;;;;;3.80;3.70;;;19.70;61.10;;;;;;5086106;27;43964;-72
2022/03/29 11:28:07;;;;;;;3.77;3.57;;;19.80;60.60;;;;;;5086508;28;44011;-73
2022/03/29 11:30:35;;;;;;;3.70;3.60;;;19.90;60.10;;;;;;5086743;28;44008;-73
2022/03/29 11:33:04;;;;;;;3.80;3.70;;;20.00;60.00;;;;;;5084927;28;44000;-73
2022/03/29 11:35:36;;;;;;;3.83;3.73;;;19.90;59.90;;;;;;5086007;27;44062;-73
2022/03/29 11:38:08;;;;;;;3.70;3.60;;;19.80;59.50;;;;;;5086139;28;43460;-72
2022/03/29 11:40:36;;;;;;;3.93;3.73;;;19.70;59.60;;;;;;5085255;28;43774;-74
2022/03/29 11:43:05;;;;;;;3.80;3.70;;;19.60;59.50;;;;;;5086608;27;44251;-73
2022/03/29 11:45:39;;;;;;;4.00;3.80;;;19.50;59.70;;;;;;5086334;27;43880;-72
2022/03/29 11:48:11;;;;;;;3.97;3.87;;;19.50;60.00;;;;;;5084609;28;44304;-73
2022/03/29 11:50:42;;;;;;;3.70;3.60;;;19.40;60.50;;;;;;5086444;28;43965;-72
2022/03/29 11:53:18;;;;;;;3.67;3.53;;;19.30;62.10;;;;;;5101803;27;43952;-74
2022/03/29 11:55:59;;;;;;;3.67;3.57;;;19.40;62.40;;;;;;5086059;28;43942;-73
2022/03/29 11:58:29;;;;;;;3.83;3.73;;;19.50;61.50;;;;;;5087572;27;43911;-73
2022/03/29 12:01:02;;;;;;;4.03;3.87;;;19.60;60.90;;;;;;5089710;28;43366;-73
2022/03/29 12:03:32;;;;;;;3.60;3.50;;;19.70;60.90;;;;;;5090045;27;43965;-74
2022/03/29 12:06:13;;;;;;;3.70;3.50;;;19.70;60.70;;;;;;5089417;28;44953;-72
2022/03/29 12:08:49;;;;;;;3.80;3.60;;;19.60;60.50;;;;;;5089627;28;43883;-73
2022/03/29 12:11:17;;;;;;;3.60;3.50;;;19.50;60.20;;;;;;5076581;28;43988;-73
2022/03/29 12:13:46;;;;;;;3.40;3.27;;;19.40;60.30;;;;;;5061715;28;43991;-73
2022/03/29 12:16:18;;;;;;;4.00;3.80;;;19.30;60.50;;;;;;5076832;28;43947;-73
2022/03/29 12:18:47;;;;;;;3.47;3.37;;;19.30;60.70;;;;;;5089387;27;43993;-73
2022/03/29 12:21:17;;;;;;;3.60;3.50;;;19.20;60.80;;;;;;5089367;28;43896;-73
2022/03/29 12:23:46;;;;;;;3.70;3.60;;;19.20;61.70;;;;;;5089814;28;43942;-73
2022/03/29 12:26:14;;;;;;;3.57;3.43;;;19.20;63.00;;;;;;5089627;28;43747;-73
2022/03/29 12:28:42;;;;;;;3.73;3.63;;;19.30;63.10;;;;;;5089337;28;43822;-73
2022/03/29 12:31:11;;;;;;;3.53;3.43;;;19.40;62.60;;;;;;5088959;28;43978;-73
2022/03/29 12:33:39;;;;;;;4.10;3.90;;;19.50;62.00;;;;;;5089448;27;43895;-73
2022/03/29 12:36:08;;;;;;;2.97;2.87;;;19.60;61.80;;;;;;5087388;28;45726;-73
2022/03/29 12:38:41;;;;;;;3.63;3.50;;;19.50;61.40;;;;;;5088774;28;43846;-73
2022/03/29 12:41:11;;;;;;;3.50;3.40;;;19.50;60.90;;;;;;5086991;28;44080;-73
2022/03/29 12:43:39;;;;;;;3.20;3.10;;;19.40;60.70;;;;;;5089335;28;43848;-72
2022/03/29 12:46:09;;;;;;;3.43;3.33;;;19.30;60.80;;;;;;5088751;28;44415;-73
2022/03/29 12:48:38;;;;;;;3.43;3.33;;;19.30;60.90;;;;;;5087359;28;44031;-73
2022/03/29 12:51:07;;;;;;;3.50;3.40;;;19.20;61.10;;;;;;5088689;28;43982;-73
2022/03/29 12:53:35;;;;;;;3.40;3.30;;;19.20;61.30;;;;;;5089115;28;43968;-73
2022/03/29 12:56:09;;;;;;;3.20;3.10;;;19.10;62.10;;;;;;5088890;27;43614;-73
2022/03/29 12:58:39;;;;;;;3.23;3.13;;;19.20;63.60;;;;;;5088870;27;44051;-73
2022/03/29 13:01:08;;;;;;;3.40;3.30;;;19.20;63.50;;;;;;5088790;28;43997;-73
2022/03/29 13:03:37;;;;;;;3.30;3.20;;;19.40;63.00;;;;;;5089189;27;44017;-73
2022/03/29 13:06:05;;;;;;;3.33;3.23;;;19.50;62.20;;;;;;5088444;27;43824;-73
2022/03/29 13:08:33;;;;;;;3.10;3.00;;;19.50;62.10;;;;;;5087865;27;43883;-73